»·PEaware :: PAA62 KGEG-KPDX

PAA62 :: KGEG-KPDX

FLIGHT INFORMATION

Flight Status: Arrived
Operator:
PanAm
More flights by this operator :: More flights under this callsign
Pilot: Alex K. (14822)
Aircraft: BOEING 737-200
(B732)
More flights by this aircraft type
Origin: KGEG Spokane Intl
United States
Destination: KPDX Portland Intl
United States
More flights between these airports :: More routes between these airports
Route: GEG3 YKM J136 BTG
File this flight plan on PilotEdge
Remarks: PBN / A1B2 NAV / RNVD1E2A1 DAT / V DOF / 180128 REG / N275SB RMK / NRP SIMBRIEF
Altitude:
(Current/Filed)
28,000ft
Speed:
(Current/Filed)
430kts
Departed: 28-Jan-18 02:34 PM
Arrived: 28-Jan-18 03:25 PM
Distance/Time
Traveled:
242nm/0:51
Distance/Time
To Go:
Arrived

Flight Plot

Page will automatically refresh every two minutes.

Flight plan parsing failed; only flown route is shown


Map Options




Map Legend


Flown Route
Filed Route
Departure Airport
Arrival Airport
Navaid (VOR, NDB)
Fix

Horizontal Profiles

Position Reports

Time Latitude Longitude Heading Altitude Ground
Speed
28-Jan-18 14:23 47.624450 -117.535450 293 2368ft 0kts
28-Jan-18 14:24 47.624450 -117.535450 293 2368ft 0kts
28-Jan-18 14:25 47.624450 -117.535450 293 2368ft 0kts
28-Jan-18 14:26 47.624450 -117.535450 293 2368ft 0kts
28-Jan-18 14:27 47.624450 -117.535450 293 2368ft 0kts
28-Jan-18 14:28 47.624450 -117.535450 293 2368ft 0kts
28-Jan-18 14:29 47.624450 -117.535450 293 2368ft 0kts
28-Jan-18 14:30 47.624450 -117.535450 293 2368ft 0kts
28-Jan-18 14:31 47.624450 -117.535450 293 2368ft 0kts
28-Jan-18 14:32 47.624451 -117.535455 293 2368ft 0kts
28-Jan-18 14:33 47.624148 -117.534845 340 2368ft 2kts
28-Jan-18 14:34 47.623754 -117.534989 46 2368ft 0kts
28-Jan-18 14:35 47.623754 -117.534989 46 2368ft 0kts
28-Jan-18 14:36 47.624107 -117.533922 118 2368ft 9kts
28-Jan-18 14:37 47.626691 -117.529126 46 2368ft 20kts
28-Jan-18 14:38 47.631024 -117.522611 45 2368ft 23kts
28-Jan-18 14:39 47.630902 -117.518734 226 2368ft 0kts
28-Jan-18 14:40 47.622177 -117.532008 225 2451ft 158kts
28-Jan-18 14:41 47.587091 -117.579921 219 5494ft 209kts
28-Jan-18 14:42 47.539023 -117.643422 220 8403ft 262kts
28-Jan-18 14:43 47.502731 -117.746655 238 11001ft 317kts
28-Jan-18 14:44 47.466255 -117.861510 241 15112ft 297kts
28-Jan-18 14:45 47.431486 -117.971970 249 17319ft 310kts
28-Jan-18 14:46 47.390920 -118.090489 235 19117ft 340kts
28-Jan-18 14:47 47.295697 -118.134243 212 20820ft 369kts
28-Jan-18 14:48 47.245223 -118.247425 256 22411ft 338kts
28-Jan-18 14:49 47.213577 -118.378558 256 23836ft 343kts
28-Jan-18 14:50 47.182315 -118.508019 256 25099ft 348kts
28-Jan-18 14:51 47.151809 -118.641715 253 26219ft 354kts
28-Jan-18 14:52 47.111602 -118.770867 252 27180ft 359kts
28-Jan-18 14:53 47.069864 -118.904134 252 28088ft 362kts
28-Jan-18 14:54 47.027291 -119.039901 251 28408ft 377kts
28-Jan-18 14:55 46.982251 -119.182360 251 28404ft 395kts
28-Jan-18 14:56 46.935155 -119.330519 251 28402ft 409kts
28-Jan-18 14:57 46.886398 -119.481995 250 28393ft 419kts
28-Jan-18 14:58 46.862840 -119.628187 256 28392ft 419kts
28-Jan-18 14:59 46.816143 -119.784112 248 28400ft 423kts
28-Jan-18 15:00 46.762418 -119.936796 247 28398ft 423kts
28-Jan-18 15:01 46.707635 -120.088163 245 28345ft 423kts
28-Jan-18 15:02 46.652263 -120.239309 244 28343ft 423kts
28-Jan-18 15:03 46.596594 -120.389673 244 28342ft 423kts
28-Jan-18 15:04 46.541782 -120.538199 244 28335ft 404kts
28-Jan-18 15:05 46.491190 -120.673985 243 26895ft 395kts
28-Jan-18 15:06 46.442601 -120.802862 243 25331ft 387kts
28-Jan-18 15:07 46.392515 -120.935927 243 23967ft 374kts
28-Jan-18 15:08 46.347579 -121.054896 243 22533ft 369kts
28-Jan-18 15:09 46.299136 -121.182539 243 21070ft 359kts
28-Jan-18 15:10 46.251391 -121.307519 243 20160ft 352kts
28-Jan-18 15:11 46.204639 -121.429143 243 19337ft 346kts
28-Jan-18 15:12 46.158837 -121.548841 243 18595ft 340kts
28-Jan-18 15:13 46.114329 -121.664207 242 17485ft 334kts
28-Jan-18 15:14 46.070751 -121.775302 242 16070ft 326kts
28-Jan-18 15:15 46.027953 -121.884873 241 14222ft 318kts
28-Jan-18 15:16 45.985910 -121.992296 241 12549ft 312kts
28-Jan-18 15:17 45.944835 -122.096782 240 10960ft 280kts
28-Jan-18 15:18 45.909255 -122.187003 238 8758ft 270kts
28-Jan-18 15:19 45.871956 -122.280659 238 7212ft 272kts
28-Jan-18 15:20 45.834745 -122.373605 239 6298ft 274kts
28-Jan-18 15:21 45.797486 -122.467519 238 5980ft 271kts
28-Jan-18 15:22 45.764852 -122.557830 261 5408ft 274kts
28-Jan-18 15:23 45.757432 -122.663875 264 4938ft 265kts
28-Jan-18 15:24 45.751832 -122.763613 264 4341ft 262kts
28-Jan-18 15:25 45.729304 -122.854932 204 3467ft 255kts
28-Jan-18 15:26 45.678742 -122.814225 116 2991ft 204kts
28-Jan-18 15:27 45.652884 -122.745266 117 2460ft 167kts
28-Jan-18 15:28 45.634551 -122.697885 118 1640ft 126kts
28-Jan-18 15:29 45.617663 -122.653879 117 981ft 125kts
28-Jan-18 15:30 45.600629 -122.610498 119 297ft 124kts
28-Jan-18 15:31 45.587774 -122.577631 118 38ft 36kts
28-Jan-18 15:32 45.587199 -122.579310 298 38ft 13kts
28-Jan-18 15:33 45.589528 -122.587529 278 38ft 19kts
28-Jan-18 15:34 45.592390 -122.594802 299 38ft 22kts
28-Jan-18 15:35 45.591193 -122.599174 201 38ft 6kts
28-Jan-18 15:36 45.590568 -122.599453 196 38ft 0kts
28-Jan-18 15:37 45.590568 -122.599453 196 38ft 0kts
28-Jan-18 15:38 45.590568 -122.599453 196 38ft 0kts
28-Jan-18 15:39 45.590568 -122.599453 196 38ft 0kts
28-Jan-18 15:40 45.590568 -122.599453 196 38ft 0kts
28-Jan-18 15:41 45.590568 -122.599453 196 38ft 0kts
28-Jan-18 15:42 45.590568 -122.599453 196 38ft 0kts
28-Jan-18 15:43 45.590568 -122.599453 196 38ft 0kts

Navigation Log

Ident Type
Flight plan parsing failed, navigation log unavailable